createdAt,value
2019-03-29T00:00:28.053Z,85
2019-03-29T00:01:30.458Z,85
2019-03-29T00:02:33.397Z,85
2019-03-29T00:03:36.141Z,85
2019-03-29T00:04:38.177Z,85
2019-03-29T00:05:40.311Z,85
2019-03-29T00:06:42.346Z,85
2019-03-29T00:07:44.381Z,85
2019-03-29T00:08:46.457Z,85
2019-03-29T00:09:48.481Z,84
2019-03-29T00:10:50.800Z,85
2019-03-29T00:11:52.849Z,85
2019-03-29T00:12:54.900Z,85
2019-03-29T00:13:57.312Z,84
2019-03-29T00:14:59.663Z,84
2019-03-29T00:16:01.919Z,84
2019-03-29T00:17:04.537Z,84
2019-03-29T00:18:06.702Z,84
2019-03-29T00:19:08.746Z,84
2019-03-29T00:20:11.456Z,84
2019-03-29T00:21:14.115Z,84
2019-03-29T00:22:16.434Z,84
2019-03-29T00:23:18.718Z,84
2019-03-29T00:24:21.210Z,84
2019-03-29T00:25:23.536Z,84
2019-03-29T00:26:26.553Z,84
2019-03-29T00:27:28.655Z,84
2019-03-29T00:28:31.141Z,84
2019-03-29T00:29:33.492Z,83
2019-03-29T00:30:35.826Z,83
2019-03-29T00:31:38.050Z,83
2019-03-29T00:32:41.975Z,83
2019-03-29T00:33:44.029Z,83
2019-03-29T00:34:46.084Z,83
2019-03-29T00:35:48.126Z,83
2019-03-29T00:36:51.856Z,83
2019-03-29T00:37:56.901Z,83
2019-03-29T00:38:59.256Z,83
2019-03-29T00:40:01.587Z,83
2019-03-29T00:41:05.660Z,83
2019-03-29T00:42:14.419Z,83
2019-03-29T00:43:25.757Z,83
2019-03-29T00:44:34.234Z,83
2019-03-29T00:45:46.872Z,83
2019-03-29T00:46:57.236Z,83
2019-03-29T00:48:06.688Z,83
2019-03-29T00:49:19.442Z,83
2019-03-29T00:50:28.356Z,83
2019-03-29T00:51:37.378Z,83
2019-03-29T00:52:49.044Z,83
2019-03-29T00:53:59.855Z,83
2019-03-29T00:55:09.408Z,83
2019-03-29T00:56:19.390Z,83
2019-03-29T00:57:24.475Z,83
2019-03-29T00:58:26.819Z,83
2019-03-29T00:59:28.860Z,83
2019-03-29T01:00:34.374Z,83
2019-03-29T01:01:38.212Z,83
2019-03-29T01:02:40.407Z,83
2019-03-29T01:03:43.518Z,83
2019-03-29T01:04:45.700Z,82
2019-03-29T01:05:49.259Z,83
2019-03-29T01:06:51.306Z,83
2019-03-29T01:08:11.279Z,82
2019-03-29T01:09:13.343Z,83
2019-03-29T01:10:15.376Z,83
2019-03-29T01:11:17.433Z,83
2019-03-29T01:12:19.471Z,82
2019-03-29T01:13:22.193Z,83
2019-03-29T01:14:24.497Z,83
2019-03-29T01:15:26.547Z,83
2019-03-29T01:16:28.871Z,83
2019-03-29T01:17:30.906Z,82
2019-03-29T01:18:32.956Z,82
2019-03-29T01:19:35.014Z,83
2019-03-29T01:20:37.053Z,82
2019-03-29T01:21:40.827Z,83
2019-03-29T01:22:42.879Z,82
2019-03-29T01:23:45.199Z,82
2019-03-29T01:24:47.244Z,82
2019-03-29T01:25:49.566Z,82
2019-03-29T01:26:52.379Z,82
2019-03-29T01:27:55.212Z,82
2019-03-29T01:28:57.537Z,83
2019-03-29T01:29:59.861Z,82
2019-03-29T01:31:01.984Z,82
2019-03-29T01:32:04.046Z,82
2019-03-29T01:33:06.086Z,82
2019-03-29T01:34:08.118Z,83
2019-03-29T01:35:10.414Z,82
2019-03-29T01:36:12.447Z,82
2019-03-29T01:37:14.892Z,82
2019-03-29T01:38:25.186Z,82
2019-03-29T01:39:27.232Z,82
2019-03-29T01:40:29.275Z,83
2019-03-29T01:41:31.309Z,82
2019-03-29T01:42:33.457Z,83
2019-03-29T01:43:36.869Z,83
2019-03-29T01:44:38.913Z,82
2019-03-29T01:45:40.948Z,83
2019-03-29T01:46:42.996Z,82
2019-03-29T01:47:45.326Z,82
2019-03-29T01:48:47.442Z,83
2019-03-29T01:49:51.055Z,83
2019-03-29T01:50:53.479Z,83
2019-03-29T01:51:55.526Z,83
2019-03-29T01:52:57.962Z,83
2019-03-29T01:54:00.016Z,83
2019-03-29T01:55:02.045Z,83
2019-03-29T01:56:04.109Z,83
2019-03-29T01:57:07.662Z,83
2019-03-29T01:58:09.990Z,83
2019-03-29T01:59:12.049Z,83
2019-03-29T02:00:14.073Z,83
2019-03-29T02:01:16.409Z,83
2019-03-29T02:02:18.474Z,82
2019-03-29T02:03:20.523Z,82
2019-03-29T02:04:22.553Z,83
2019-03-29T02:05:25.288Z,83
2019-03-29T02:06:27.321Z,82
2019-03-29T02:07:29.367Z,83
2019-03-29T02:08:38.608Z,83
2019-03-29T02:09:40.636Z,83
2019-03-29T02:10:42.665Z,83
2019-03-29T02:11:45.108Z,83
2019-03-29T02:12:47.533Z,83
2019-03-29T02:13:49.579Z,83
2019-03-29T02:14:52.277Z,83
2019-03-29T02:15:54.363Z,82
2019-03-29T02:16:56.903Z,82
2019-03-29T02:17:59.433Z,83
2019-03-29T02:19:01.474Z,83
2019-03-29T02:20:03.593Z,83
2019-03-29T02:21:05.650Z,83
2019-03-29T02:22:09.360Z,83
2019-03-29T02:23:11.409Z,83
2019-03-29T02:24:13.442Z,83
2019-03-29T02:25:17.043Z,83
2019-03-29T02:26:19.102Z,83
2019-03-29T02:27:21.146Z,83
2019-03-29T02:28:23.182Z,83
2019-03-29T02:29:25.242Z,83
2019-03-29T02:30:27.668Z,83
2019-03-29T02:31:30.180Z,83
2019-03-29T02:32:32.247Z,83
2019-03-29T02:33:34.291Z,83
2019-03-29T02:34:37.033Z,83
2019-03-29T02:35:40.108Z,83
2019-03-29T02:36:42.152Z,83
2019-03-29T02:37:44.920Z,83
2019-03-29T02:38:59.762Z,83
2019-03-29T02:40:02.266Z,83
2019-03-29T02:41:04.472Z,83
2019-03-29T02:42:07.110Z,83
2019-03-29T02:43:11.823Z,83
2019-03-29T02:44:14.198Z,83
2019-03-29T02:45:16.588Z,83
2019-03-29T02:46:18.745Z,83
2019-03-29T02:47:22.701Z,84
2019-03-29T02:48:25.042Z,83
2019-03-29T02:49:27.659Z,83
2019-03-29T02:50:30.288Z,83
2019-03-29T02:51:33.978Z,83
2019-03-29T02:52:36.058Z,83
2019-03-29T02:53:38.119Z,83
2019-03-29T02:54:40.742Z,83
2019-03-29T02:55:43.067Z,83
2019-03-29T02:56:45.157Z,83
2019-03-29T02:57:47.480Z,83
2019-03-29T02:58:49.524Z,83
2019-03-29T02:59:51.593Z,83
2019-03-29T03:00:53.688Z,83
2019-03-29T03:01:56.139Z,83
2019-03-29T03:02:58.799Z,83
2019-03-29T03:04:01.128Z,83
2019-03-29T03:05:03.589Z,83
2019-03-29T03:06:05.967Z,83
2019-03-29T03:07:08.427Z,83
2019-03-29T03:08:10.485Z,83
2019-03-29T03:09:16.013Z,83
2019-03-29T03:10:18.065Z,83
2019-03-29T03:11:20.229Z,83
2019-03-29T03:12:22.684Z,83
2019-03-29T03:13:24.779Z,83
2019-03-29T03:14:27.130Z,83
2019-03-29T03:15:30.166Z,83
2019-03-29T03:16:32.511Z,83
2019-03-29T03:17:34.943Z,83
2019-03-29T03:18:37.609Z,83
2019-03-29T03:19:39.674Z,83
2019-03-29T03:20:41.737Z,83
2019-03-29T03:21:44.094Z,83
2019-03-29T03:22:46.852Z,83
2019-03-29T03:23:49.231Z,83
2019-03-29T03:24:51.592Z,83
2019-03-29T03:25:54.388Z,83
2019-03-29T03:26:57.090Z,83
2019-03-29T03:27:59.711Z,83
2019-03-29T03:29:02.048Z,83
2019-03-29T03:30:05.098Z,83
2019-03-29T03:31:07.186Z,83
2019-03-29T03:32:09.270Z,83
2019-03-29T03:33:11.903Z,83
2019-03-29T03:34:14.269Z,83
2019-03-29T03:35:16.440Z,83
2019-03-29T03:36:19.083Z,83
2019-03-29T03:37:21.452Z,83
2019-03-29T03:38:23.585Z,83
2019-03-29T03:39:34.124Z,83
2019-03-29T03:40:36.505Z,84
2019-03-29T03:41:39.412Z,83
2019-03-29T03:42:42.548Z,83
2019-03-29T03:43:45.581Z,83
2019-03-29T03:44:48.135Z,83
2019-03-29T03:45:50.468Z,83
2019-03-29T03:46:52.800Z,83
2019-03-29T03:47:54.865Z,83
2019-03-29T03:48:57.198Z,83
2019-03-29T03:50:02.675Z,83
2019-03-29T03:51:05.455Z,83
2019-03-29T03:52:07.597Z,83
2019-03-29T03:53:10.338Z,83
2019-03-29T03:54:12.786Z,83
2019-03-29T03:55:15.429Z,83
2019-03-29T03:56:17.504Z,83
2019-03-29T03:57:19.880Z,82
2019-03-29T03:58:22.540Z,82
2019-03-29T03:59:24.881Z,82
2019-03-29T04:00:26.966Z,82
2019-03-29T04:01:29.014Z,82
2019-03-29T04:02:31.730Z,82
2019-03-29T04:03:34.106Z,82
2019-03-29T04:04:38.870Z,82
2019-03-29T04:05:41.222Z,82
2019-03-29T04:06:43.321Z,82
2019-03-29T04:07:45.670Z,82
2019-03-29T04:08:48.026Z,82
2019-03-29T04:09:51.587Z,82
2019-03-29T04:10:53.679Z,82
2019-03-29T04:11:56.148Z,82
2019-03-29T04:12:58.779Z,82
2019-03-29T04:14:00.858Z,82
2019-03-29T04:15:03.747Z,82
2019-03-29T04:16:06.300Z,82
2019-03-29T04:17:09.022Z,82
2019-03-29T04:18:17.142Z,82
2019-03-29T04:19:19.576Z,82
2019-03-29T04:20:22.353Z,82
2019-03-29T04:21:24.992Z,82
2019-03-29T04:22:27.431Z,82
2019-03-29T04:23:29.490Z,82
2019-03-29T04:24:31.934Z,82
2019-03-29T04:25:34.267Z,82
2019-03-29T04:26:36.324Z,82
2019-03-29T04:27:39.364Z,82
2019-03-29T04:28:42.133Z,82
2019-03-29T04:29:44.199Z,82
2019-03-29T04:30:46.271Z,82
2019-03-29T04:31:48.681Z,83
2019-03-29T04:32:51.102Z,82
2019-03-29T04:33:53.177Z,82
2019-03-29T04:34:55.804Z,82
2019-03-29T04:35:58.228Z,82
2019-03-29T04:37:00.579Z,82
2019-03-29T04:38:03.322Z,82
2019-03-29T04:39:06.251Z,82
2019-03-29T04:40:10.875Z,83
2019-03-29T04:41:12.915Z,82
2019-03-29T04:42:14.944Z,82
2019-03-29T04:43:17.026Z,82
2019-03-29T04:44:19.642Z,82
2019-03-29T04:45:21.695Z,82
2019-03-29T04:46:23.755Z,83
2019-03-29T04:47:26.379Z,83
2019-03-29T04:48:29.101Z,83
2019-03-29T04:49:31.188Z,83
2019-03-29T04:50:33.234Z,83
2019-03-29T04:51:35.571Z,82
2019-03-29T04:52:37.629Z,83
2019-03-29T04:53:39.671Z,83
2019-03-29T04:54:41.710Z,82
2019-03-29T04:55:43.775Z,82
2019-03-29T04:56:45.870Z,82
2019-03-29T04:57:48.291Z,82
2019-03-29T04:58:50.350Z,82
2019-03-29T04:59:52.390Z,82
2019-03-29T05:00:55.760Z,82
2019-03-29T05:01:58.090Z,82
2019-03-29T05:03:00.135Z,82
2019-03-29T05:04:02.172Z,82
2019-03-29T05:05:04.217Z,82
2019-03-29T05:06:06.558Z,82
2019-03-29T05:07:08.601Z,82
2019-03-29T05:08:10.661Z,83
2019-03-29T05:09:12.694Z,83
2019-03-29T05:10:22.689Z,83
2019-03-29T05:11:24.742Z,83
2019-03-29T05:12:26.845Z,83
2019-03-29T05:13:29.170Z,83
2019-03-29T05:14:31.490Z,83
2019-03-29T05:15:33.944Z,83
2019-03-29T05:16:36.254Z,83
2019-03-29T05:17:38.382Z,83
2019-03-29T05:18:40.714Z,83
2019-03-29T05:19:45.479Z,83
2019-03-29T05:20:47.598Z,83
2019-03-29T05:21:50.488Z,83
2019-03-29T05:22:52.521Z,83
2019-03-29T05:23:54.579Z,83
2019-03-29T05:24:56.720Z,83
2019-03-29T05:25:58.756Z,83
2019-03-29T05:27:00.874Z,83
2019-03-29T05:28:02.915Z,83
2019-03-29T05:29:05.384Z,83
2019-03-29T05:30:07.423Z,83
2019-03-29T05:31:09.447Z,83
2019-03-29T05:32:11.785Z,83
2019-03-29T05:33:13.836Z,83
2019-03-29T05:34:16.451Z,83
2019-03-29T05:35:18.499Z,83
2019-03-29T05:36:20.557Z,83
2019-03-29T05:37:22.611Z,83
2019-03-29T05:38:24.654Z,83
2019-03-29T05:39:26.981Z,83
2019-03-29T05:40:36.552Z,83
2019-03-29T05:41:38.602Z,83
2019-03-29T05:42:40.640Z,83
2019-03-29T05:43:42.958Z,83
2019-03-29T05:44:45.288Z,83
2019-03-29T05:45:47.325Z,83
2019-03-29T05:46:49.366Z,83
2019-03-29T05:47:51.448Z,83
2019-03-29T05:48:53.792Z,83
2019-03-29T05:49:56.135Z,83
2019-03-29T05:50:58.183Z,83
2019-03-29T05:52:00.634Z,83
2019-03-29T05:53:03.057Z,83
2019-03-29T05:54:05.156Z,83
2019-03-29T05:55:07.194Z,83
2019-03-29T05:56:09.236Z,83
2019-03-29T05:57:11.268Z,83
2019-03-29T05:58:13.313Z,83
2019-03-29T05:59:15.355Z,83
2019-03-29T06:00:17.393Z,83
2019-03-29T06:01:19.726Z,83
2019-03-29T06:02:22.034Z,83
2019-03-29T06:03:24.084Z,83
2019-03-29T06:04:26.175Z,83
2019-03-29T06:05:28.781Z,83
2019-03-29T06:06:30.854Z,83
2019-03-29T06:07:32.937Z,83
2019-03-29T06:08:34.967Z,83
2019-03-29T06:09:37.024Z,83
2019-03-29T06:10:50.540Z,83
2019-03-29T06:11:52.579Z,83
2019-03-29T06:12:54.629Z,83
2019-03-29T06:13:56.709Z,83
2019-03-29T06:14:58.733Z,83
2019-03-29T06:16:00.779Z,83
2019-03-29T06:17:03.485Z,83
2019-03-29T06:18:05.812Z,83
2019-03-29T06:19:07.852Z,83
2019-03-29T06:20:10.278Z,83
2019-03-29T06:21:12.714Z,83
2019-03-29T06:22:14.744Z,83
2019-03-29T06:23:16.792Z,83
2019-03-29T06:24:19.109Z,83
2019-03-29T06:25:21.170Z,83
2019-03-29T06:26:24.198Z,83
2019-03-29T06:27:26.234Z,83
2019-03-29T06:28:30.850Z,83
2019-03-29T06:29:32.892Z,83
2019-03-29T06:30:34.930Z,83
2019-03-29T06:31:36.957Z,83
2019-03-29T06:32:39.009Z,83
2019-03-29T06:33:44.199Z,83
2019-03-29T06:34:46.812Z,83
2019-03-29T06:35:48.869Z,83
2019-03-29T06:36:50.995Z,83
2019-03-29T06:37:53.693Z,83
2019-03-29T06:38:55.750Z,83
2019-03-29T06:39:58.078Z,83
2019-03-29T06:41:04.437Z,83
2019-03-29T06:42:06.484Z,83
2019-03-29T06:43:08.535Z,83
2019-03-29T06:44:10.577Z,83
2019-03-29T06:45:12.620Z,83
2019-03-29T06:46:14.740Z,83
2019-03-29T06:47:16.787Z,83
2019-03-29T06:48:18.821Z,83
2019-03-29T06:49:20.854Z,83
2019-03-29T06:50:22.939Z,83
2019-03-29T06:51:25.001Z,83
2019-03-29T06:52:27.624Z,83
2019-03-29T06:53:30.453Z,83
2019-03-29T06:54:32.938Z,83
2019-03-29T06:55:34.965Z,83
2019-03-29T06:56:37.294Z,83
2019-03-29T06:57:39.712Z,83
2019-03-29T06:58:42.044Z,83
2019-03-29T06:59:44.089Z,83
2019-03-29T07:00:48.032Z,82
2019-03-29T07:01:50.091Z,82
2019-03-29T07:02:52.136Z,82
2019-03-29T07:03:54.174Z,82
2019-03-29T07:04:56.195Z,82
2019-03-29T07:05:58.235Z,82
2019-03-29T07:07:00.282Z,82
2019-03-29T07:08:02.613Z,82
2019-03-29T07:09:04.663Z,82
2019-03-29T07:10:06.699Z,82
2019-03-29T07:11:18.908Z,82
2019-03-29T07:12:21.251Z,82
2019-03-29T07:13:23.288Z,82
2019-03-29T07:14:25.327Z,82
2019-03-29T07:15:27.381Z,82
2019-03-29T07:16:29.416Z,82
2019-03-29T07:17:31.477Z,82
2019-03-29T07:18:33.517Z,81
2019-03-29T07:19:35.565Z,81
2019-03-29T07:20:37.605Z,82
2019-03-29T07:21:39.634Z,82
2019-03-29T07:22:41.670Z,82
2019-03-29T07:23:43.715Z,82
2019-03-29T07:24:45.743Z,82
2019-03-29T07:25:48.179Z,82
2019-03-29T07:26:50.940Z,81
2019-03-29T07:27:53.455Z,81
2019-03-29T07:28:55.773Z,81
2019-03-29T07:29:58.137Z,81
2019-03-29T07:31:00.169Z,81
2019-03-29T07:32:02.200Z,81
2019-03-29T07:33:04.261Z,81
2019-03-29T07:34:06.681Z,81
2019-03-29T07:35:08.731Z,81
2019-03-29T07:36:10.775Z,81
2019-03-29T07:37:13.113Z,81
2019-03-29T07:38:15.145Z,81
2019-03-29T07:39:17.186Z,81
2019-03-29T07:40:19.223Z,81
2019-03-29T07:41:33.740Z,81
2019-03-29T07:42:35.788Z,81
2019-03-29T07:43:37.832Z,81
2019-03-29T07:44:39.868Z,81
2019-03-29T07:45:41.914Z,81
2019-03-29T07:46:43.952Z,81
2019-03-29T07:47:45.986Z,81
2019-03-29T07:48:48.034Z,81
2019-03-29T07:49:50.692Z,81
2019-03-29T07:50:52.740Z,81
2019-03-29T07:51:54.787Z,81
2019-03-29T07:52:56.833Z,81
2019-03-29T07:53:58.858Z,80
2019-03-29T07:55:01.448Z,80
2019-03-29T07:56:03.492Z,80
2019-03-29T07:57:05.923Z,80
2019-03-29T07:58:07.956Z,80
2019-03-29T07:59:10.007Z,80
2019-03-29T08:00:12.041Z,80
2019-03-29T08:01:14.453Z,80
2019-03-29T08:02:16.488Z,80
2019-03-29T08:03:24.300Z,80
2019-03-29T08:04:26.717Z,79
2019-03-29T08:05:28.750Z,79
2019-03-29T08:06:30.800Z,79
2019-03-29T08:07:34.468Z,79
2019-03-29T08:08:36.519Z,79
2019-03-29T08:09:38.562Z,79
2019-03-29T08:10:41.185Z,79
2019-03-29T08:11:48.172Z,79
2019-03-29T08:12:50.951Z,79
2019-03-29T08:13:53.006Z,79
2019-03-29T08:14:55.051Z,78
2019-03-29T08:15:57.100Z,78
2019-03-29T08:16:59.427Z,78
2019-03-29T08:18:02.749Z,77
2019-03-29T08:19:05.090Z,77
2019-03-29T08:20:45.287Z,77
2019-03-29T08:21:47.326Z,77
2019-03-29T08:22:49.499Z,77
2019-03-29T08:23:51.595Z,77
2019-03-29T08:24:53.637Z,77
2019-03-29T08:25:56.076Z,77
2019-03-29T08:26:58.126Z,77
2019-03-29T08:28:00.229Z,77
2019-03-29T08:29:02.568Z,77
2019-03-29T08:30:04.991Z,76
2019-03-29T08:31:07.307Z,76
2019-03-29T08:32:09.747Z,76
2019-03-29T08:33:11.836Z,76
2019-03-29T08:34:14.266Z,76
2019-03-29T08:35:16.582Z,76
2019-03-29T08:36:18.642Z,75
2019-03-29T08:37:20.680Z,75
2019-03-29T08:38:22.782Z,75
2019-03-29T08:39:29.589Z,75
2019-03-29T08:40:31.614Z,75
2019-03-29T08:41:33.665Z,74
2019-03-29T08:42:35.702Z,74
2019-03-29T08:43:38.011Z,74
2019-03-29T08:44:40.617Z,74
2019-03-29T08:45:43.495Z,74
2019-03-29T08:46:47.190Z,74
2019-03-29T08:47:49.929Z,73
2019-03-29T08:48:52.924Z,73
2019-03-29T08:49:56.247Z,73
2019-03-29T08:50:59.563Z,73
2019-03-29T08:52:02.824Z,71
2019-03-29T08:53:05.731Z,70
2019-03-29T08:54:08.522Z,70
2019-03-29T08:55:11.779Z,70
2019-03-29T08:56:15.055Z,69
2019-03-29T08:57:17.773Z,69
2019-03-29T08:58:20.415Z,69
2019-03-29T08:59:23.293Z,68
2019-03-29T09:00:26.190Z,69
2019-03-29T09:01:28.824Z,66
2019-03-29T09:02:31.795Z,65
2019-03-29T09:03:34.207Z,65
2019-03-29T09:04:36.342Z,64
2019-03-29T09:05:40.222Z,63
2019-03-29T09:06:55.770Z,64
2019-03-29T09:07:57.825Z,62
2019-03-29T09:09:00.149Z,61
2019-03-29T09:10:02.578Z,62
2019-03-29T09:11:08.513Z,60
2019-03-29T09:12:16.469Z,60
2019-03-29T09:13:18.930Z,61
2019-03-29T09:14:21.672Z,60
2019-03-29T09:15:24.104Z,59
2019-03-29T09:16:26.158Z,59
2019-03-29T09:17:28.198Z,58
2019-03-29T09:18:30.243Z,58
2019-03-29T09:19:32.362Z,59
2019-03-29T09:20:35.642Z,58
2019-03-29T09:21:37.705Z,59
2019-03-29T09:22:39.758Z,59
2019-03-29T09:23:42.188Z,60
2019-03-29T09:24:44.247Z,58
2019-03-29T09:25:46.581Z,59
2019-03-29T09:26:48.616Z,60
2019-03-29T09:27:50.665Z,59
2019-03-29T09:28:52.727Z,59
2019-03-29T09:29:54.799Z,58
2019-03-29T09:30:58.087Z,59
2019-03-29T09:32:00.225Z,60
2019-03-29T09:33:02.275Z,60
2019-03-29T09:34:04.889Z,61
2019-03-29T09:35:06.957Z,60
2019-03-29T09:36:09.279Z,61
2019-03-29T09:37:11.334Z,60
2019-03-29T09:38:13.383Z,60
2019-03-29T09:39:15.479Z,60
2019-03-29T09:40:17.816Z,61
2019-03-29T09:41:19.878Z,60
2019-03-29T09:42:31.270Z,61
2019-03-29T09:43:33.611Z,61
2019-03-29T09:44:35.973Z,61
2019-03-29T09:45:41.773Z,61
2019-03-29T09:46:47.324Z,61
2019-03-29T09:47:51.773Z,61
2019-03-29T09:48:56.391Z,62
2019-03-29T09:49:58.444Z,61
2019-03-29T09:51:00.914Z,61
2019-03-29T09:52:03.859Z,62
2019-03-29T09:53:05.900Z,61
2019-03-29T09:54:07.971Z,62
2019-03-29T09:55:10.018Z,62
2019-03-29T09:56:12.064Z,62
2019-03-29T09:57:16.485Z,63
2019-03-29T09:58:18.530Z,62
2019-03-29T09:59:24.863Z,62
2019-03-29T10:00:26.893Z,62
2019-03-29T10:01:29.846Z,62
2019-03-29T10:02:32.371Z,63
2019-03-29T10:03:34.439Z,62
2019-03-29T10:04:36.492Z,62
2019-03-29T10:05:38.824Z,62
2019-03-29T10:06:40.875Z,62
2019-03-29T10:07:42.913Z,61
2019-03-29T10:08:44.982Z,62
2019-03-29T10:09:47.012Z,61
2019-03-29T10:10:49.734Z,61
2019-03-29T10:11:51.778Z,62
2019-03-29T10:12:53.814Z,62
2019-03-29T10:13:55.869Z,62
2019-03-29T10:14:57.918Z,62
2019-03-29T10:16:00.032Z,61
2019-03-29T10:17:02.098Z,61
2019-03-29T10:18:04.172Z,61
2019-03-29T10:19:06.488Z,61
2019-03-29T10:20:08.615Z,61
2019-03-29T10:21:10.681Z,61
2019-03-29T10:22:13.199Z,61
2019-03-29T10:23:15.244Z,61
2019-03-29T10:24:17.591Z,61
2019-03-29T10:25:22.119Z,60
2019-03-29T10:26:24.474Z,60
2019-03-29T10:27:26.522Z,60
2019-03-29T10:28:28.564Z,61
2019-03-29T10:29:30.987Z,60
2019-03-29T10:30:33.035Z,61
2019-03-29T10:31:35.080Z,61
2019-03-29T10:32:37.129Z,61
2019-03-29T10:33:39.481Z,60
2019-03-29T10:34:41.523Z,60
2019-03-29T10:35:53.743Z,59
2019-03-29T10:36:55.788Z,60
2019-03-29T10:37:57.849Z,60
2019-03-29T10:38:59.903Z,59
2019-03-29T10:40:02.341Z,59
2019-03-29T10:41:04.400Z,59
2019-03-29T10:42:06.774Z,59
2019-03-29T10:43:09.103Z,59
2019-03-29T10:44:11.215Z,59
2019-03-29T10:45:13.293Z,60
2019-03-29T10:46:15.326Z,60
2019-03-29T10:47:17.768Z,59
2019-03-29T10:48:19.824Z,60
2019-03-29T10:49:21.863Z,59
2019-03-29T10:50:23.897Z,59
2019-03-29T10:51:25.955Z,59
2019-03-29T10:52:28.309Z,59
2019-03-29T10:53:30.352Z,59
2019-03-29T10:54:32.409Z,59
2019-03-29T10:55:34.473Z,59
2019-03-29T10:56:36.518Z,59
2019-03-29T10:57:38.721Z,59
2019-03-29T10:58:40.783Z,60
2019-03-29T10:59:42.818Z,59
2019-03-29T11:00:44.862Z,59
2019-03-29T11:01:46.927Z,59
2019-03-29T11:02:48.966Z,58
2019-03-29T11:03:51.417Z,59
2019-03-29T11:04:54.133Z,59
2019-03-29T11:05:56.172Z,58
2019-03-29T11:06:58.281Z,58
2019-03-29T11:08:00.332Z,58
2019-03-29T11:09:02.378Z,57
2019-03-29T11:10:04.437Z,58
2019-03-29T11:11:06.466Z,58
2019-03-29T11:12:08.525Z,58
2019-03-29T11:13:15.451Z,58
2019-03-29T11:14:17.536Z,57
2019-03-29T11:15:19.598Z,58
2019-03-29T11:16:21.663Z,58
2019-03-29T11:17:23.703Z,57
2019-03-29T11:18:26.024Z,56
2019-03-29T11:19:28.083Z,57
2019-03-29T11:20:30.134Z,57
2019-03-29T11:21:32.185Z,57
2019-03-29T11:22:34.226Z,57
2019-03-29T11:23:36.569Z,57
2019-03-29T11:24:38.598Z,57
2019-03-29T11:25:40.696Z,56
2019-03-29T11:26:42.754Z,56
2019-03-29T11:27:45.081Z,56
2019-03-29T11:28:47.133Z,56
2019-03-29T11:29:49.195Z,56
2019-03-29T11:30:51.235Z,56
2019-03-29T11:31:53.329Z,56
2019-03-29T11:32:55.456Z,56
2019-03-29T11:33:57.506Z,56
2019-03-29T11:34:59.579Z,57
2019-03-29T11:36:01.629Z,56
2019-03-29T11:37:03.953Z,56
2019-03-29T11:38:06.001Z,56
2019-03-29T11:39:08.380Z,55
2019-03-29T11:40:10.694Z,54
2019-03-29T11:41:12.744Z,54
2019-03-29T11:42:14.794Z,54
2019-03-29T11:43:28.507Z,54
2019-03-29T11:44:31.255Z,54
2019-03-29T11:45:33.677Z,52
2019-03-29T11:46:36.117Z,53
2019-03-29T11:47:38.214Z,54
2019-03-29T11:48:40.269Z,53
2019-03-29T11:49:42.325Z,53
2019-03-29T11:50:44.459Z,53
2019-03-29T11:51:46.894Z,53
2019-03-29T11:52:48.981Z,52
2019-03-29T11:53:52.482Z,52
2019-03-29T11:54:54.548Z,52
2019-03-29T11:55:56.588Z,53
2019-03-29T11:56:58.653Z,52
2019-03-29T11:58:00.684Z,51
2019-03-29T11:59:02.740Z,52
2019-03-29T12:00:04.794Z,52
2019-03-29T12:01:07.241Z,52
2019-03-29T12:02:09.304Z,52
2019-03-29T12:03:11.354Z,52
2019-03-29T12:04:13.967Z,52
2019-03-29T12:05:16.018Z,52
2019-03-29T12:06:18.128Z,52
2019-03-29T12:07:20.175Z,52
2019-03-29T12:08:22.536Z,51
2019-03-29T12:09:24.581Z,51
2019-03-29T12:10:26.691Z,51
2019-03-29T12:11:28.738Z,51
2019-03-29T12:12:31.079Z,52
2019-03-29T12:13:42.637Z,51
2019-03-29T12:14:44.688Z,50
2019-03-29T12:15:46.745Z,50
2019-03-29T12:16:48.792Z,49
2019-03-29T12:17:51.543Z,49
2019-03-29T12:18:53.599Z,48
2019-03-29T12:19:55.646Z,49
2019-03-29T12:20:57.690Z,49
2019-03-29T12:21:59.771Z,50
2019-03-29T12:23:01.884Z,50
2019-03-29T12:24:03.935Z,49
2019-03-29T12:25:06.043Z,49
2019-03-29T12:26:08.486Z,49
2019-03-29T12:27:10.910Z,48
2019-03-29T12:28:12.958Z,48
2019-03-29T12:29:15.344Z,48
2019-03-29T12:30:33.718Z,47
2019-03-29T12:31:35.794Z,48
2019-03-29T12:32:37.856Z,48
2019-03-29T12:33:39.907Z,49
2019-03-29T12:34:41.946Z,49
2019-03-29T12:35:44.075Z,49
2019-03-29T12:36:47.004Z,48
2019-03-29T12:37:49.058Z,48
2019-03-29T12:38:51.411Z,49
2019-03-29T12:39:53.476Z,49
2019-03-29T12:40:55.523Z,48
2019-03-29T12:41:57.580Z,49
2019-03-29T12:42:59.633Z,48
2019-03-29T12:44:01.682Z,48
2019-03-29T12:45:04.311Z,48
2019-03-29T12:46:06.367Z,47
2019-03-29T12:47:08.725Z,48
2019-03-29T12:48:10.780Z,47
2019-03-29T12:49:12.848Z,47
2019-03-29T12:50:14.896Z,47
2019-03-29T12:51:16.961Z,46
2019-03-29T12:52:19.008Z,46
2019-03-29T12:53:21.116Z,46
2019-03-29T12:54:23.281Z,47
2019-03-29T12:55:25.360Z,46
2019-03-29T12:56:27.412Z,47
2019-03-29T12:57:29.459Z,46
2019-03-29T12:58:31.522Z,47
2019-03-29T12:59:34.140Z,47
2019-03-29T13:00:36.217Z,45
2019-03-29T13:01:41.621Z,46
2019-03-29T13:02:43.672Z,46
2019-03-29T13:03:45.713Z,47
2019-03-29T13:04:48.592Z,47
2019-03-29T13:05:50.658Z,48
2019-03-29T13:06:53.002Z,47
2019-03-29T13:07:55.331Z,48
2019-03-29T13:08:57.401Z,46
2019-03-29T13:09:59.758Z,47
2019-03-29T13:11:02.150Z,47
2019-03-29T13:12:04.776Z,47
2019-03-29T13:13:06.846Z,47
2019-03-29T13:14:11.681Z,46
2019-03-29T13:15:14.049Z,45
2019-03-29T13:16:16.390Z,45
2019-03-29T13:17:18.447Z,45
2019-03-29T13:18:20.564Z,44
2019-03-29T13:19:22.624Z,44
2019-03-29T13:20:24.672Z,44
2019-03-29T13:21:26.722Z,44
2019-03-29T13:22:28.776Z,45
2019-03-29T13:23:30.831Z,45
2019-03-29T13:24:32.911Z,45
2019-03-29T13:25:34.964Z,46
2019-03-29T13:26:37.310Z,45
2019-03-29T13:27:39.360Z,44
2019-03-29T13:28:41.433Z,45
2019-03-29T13:29:43.533Z,45
2019-03-29T13:30:45.609Z,47
2019-03-29T13:31:47.942Z,46
2019-03-29T13:32:49.987Z,46
2019-03-29T13:33:52.058Z,45
2019-03-29T13:34:54.113Z,45
2019-03-29T13:35:56.173Z,44
2019-03-29T13:36:58.213Z,44
2019-03-29T13:38:00.279Z,44
2019-03-29T13:39:02.352Z,44
2019-03-29T13:40:04.749Z,44
2019-03-29T13:41:08.405Z,44
2019-03-29T13:42:10.451Z,44
2019-03-29T13:43:12.505Z,45
2019-03-29T13:44:28.932Z,45
2019-03-29T13:45:31.020Z,47
2019-03-29T13:46:33.091Z,46
2019-03-29T13:47:35.158Z,46
2019-03-29T13:48:37.208Z,46
2019-03-29T13:49:39.305Z,47
2019-03-29T13:50:41.377Z,46
2019-03-29T13:51:43.740Z,45
2019-03-29T13:52:45.788Z,45
2019-03-29T13:53:48.255Z,44
2019-03-29T13:54:50.310Z,45
2019-03-29T13:55:52.426Z,45
2019-03-29T13:56:54.484Z,45
2019-03-29T13:57:56.543Z,45
2019-03-29T13:58:58.594Z,46
2019-03-29T14:00:00.852Z,45
2019-03-29T14:01:02.913Z,46
2019-03-29T14:02:04.952Z,46
2019-03-29T14:03:07.029Z,47
2019-03-29T14:04:09.099Z,47
2019-03-29T14:05:11.144Z,46
2019-03-29T14:06:13.497Z,48
2019-03-29T14:07:15.540Z,47
2019-03-29T14:08:17.602Z,47
2019-03-29T14:09:19.652Z,47
2019-03-29T14:10:21.726Z,47
2019-03-29T14:11:23.768Z,46
2019-03-29T14:12:25.841Z,46
2019-03-29T14:13:27.907Z,45
2019-03-29T14:14:39.860Z,45
2019-03-29T14:15:41.923Z,45
2019-03-29T14:16:44.261Z,44
2019-03-29T14:17:46.309Z,45
2019-03-29T14:18:48.423Z,45
2019-03-29T14:19:50.512Z,46
2019-03-29T14:20:52.862Z,46
2019-03-29T14:21:54.917Z,47
2019-03-29T14:22:56.978Z,47
2019-03-29T14:23:59.035Z,47
2019-03-29T14:25:01.237Z,46
2019-03-29T14:26:03.589Z,46
2019-03-29T14:27:05.656Z,45
2019-03-29T14:28:08.074Z,45
2019-03-29T14:29:10.130Z,44
2019-03-29T14:30:12.190Z,44
2019-03-29T14:31:14.636Z,44
2019-03-29T14:32:17.109Z,43
2019-03-29T14:33:19.163Z,44
2019-03-29T14:34:21.587Z,44
2019-03-29T14:35:23.628Z,43
2019-03-29T14:36:25.689Z,44
2019-03-29T14:37:27.743Z,44
2019-03-29T14:38:29.793Z,45
2019-03-29T14:39:31.883Z,45
2019-03-29T14:40:34.230Z,45
2019-03-29T14:41:36.295Z,46
2019-03-29T14:42:38.356Z,46
2019-03-29T14:43:40.423Z,46
2019-03-29T14:44:53.949Z,47
2019-03-29T14:45:56.389Z,46
2019-03-29T14:46:58.455Z,45
2019-03-29T14:48:00.801Z,45
2019-03-29T14:49:02.884Z,44
2019-03-29T14:50:05.278Z,45
2019-03-29T14:51:07.338Z,46
2019-03-29T14:52:09.673Z,46
2019-03-29T14:53:11.847Z,46
2019-03-29T14:54:13.977Z,46
2019-03-29T14:55:16.091Z,47